Connersville, Kentucky
Current Conditions -  °F | °C
As of 6:55 AM on Thursday 27 Nov 2014 (Local Time) from KIOB Reporting Station
Overcast Overcast  
Wind Chill: 23°   Ceiling: 7000
Heat Index: 30°   Visibility: 7mi
Dew Point: 28°   Wind: 8mph
Humidity: 93%   Direction: 350°N
Pressure: 30.16"   Gusts: NA
Location:  38.4145°N, 84.2859°W
Report Text: KIOB 271155Z AUTO 35007KT 7SM SCT009 SCT041 OVC070 M01/M02 A3016 RMK AO2
Loading
Personal Weather Stations






























Interactive Weather Map New forecast layout! Learn more

10-Day Weather Forecast

Advertisements
Track Severe Weather on mobile